createdAt,value
2023-08-25T00:00:50.891Z,99.01
2023-08-25T00:01:50.899Z,99.61
2023-08-25T00:02:50.908Z,99.99
2023-08-25T00:03:50.878Z,99.99
2023-08-25T00:04:50.812Z,99.99
2023-08-25T00:05:50.826Z,99.99
2023-08-25T00:06:50.814Z,99.99
2023-08-25T00:07:51.050Z,99.99
2023-08-25T00:08:50.788Z,99.99
2023-08-25T00:09:50.773Z,99.99
2023-08-25T00:10:50.752Z,99.99
2023-08-25T00:11:50.961Z,99.99
2023-08-25T00:12:50.745Z,98.85
2023-08-25T00:13:50.750Z,99.99
2023-08-25T00:14:50.718Z,99.99
2023-08-25T00:15:50.757Z,99.15
2023-08-25T00:16:50.692Z,99.99
2023-08-25T00:17:50.846Z,99.99
2023-08-25T00:18:50.684Z,99.26
2023-08-25T00:19:50.667Z,99.99
2023-08-25T00:20:50.650Z,99.99
2023-08-25T00:21:50.640Z,99.99
2023-08-25T00:22:50.631Z,99.99
2023-08-25T00:23:50.659Z,99.99
2023-08-25T00:24:50.613Z,99.99
2023-08-25T00:25:50.607Z,99.99
2023-08-25T00:26:50.598Z,99.99
2023-08-25T00:27:50.696Z,99.99
2023-08-25T00:28:50.574Z,99.99
2023-08-25T00:29:50.576Z,99.99
2023-08-25T00:30:50.635Z,99.99
2023-08-25T00:31:50.549Z,99.99
2023-08-25T00:32:50.600Z,99.99
2023-08-25T00:33:50.517Z,99.99
2023-08-25T00:34:50.531Z,99.99
2023-08-25T00:35:50.555Z,99.99
2023-08-25T00:36:50.506Z,99.99
2023-08-25T00:37:50.861Z,99.99
2023-08-25T00:38:50.465Z,99.99
2023-08-25T00:39:50.466Z,99.99
2023-08-25T00:40:50.443Z,99.99
2023-08-25T00:41:50.458Z,99.99
2023-08-25T00:42:50.429Z,99.99
2023-08-25T00:43:50.433Z,99.99
2023-08-25T00:44:50.434Z,99.99
2023-08-25T00:45:50.410Z,99.99
2023-08-25T00:46:50.424Z,99.99
2023-08-25T00:47:50.611Z,99.99
2023-08-25T00:48:50.368Z,99.99
2023-08-25T00:49:50.353Z,99.99
2023-08-25T00:50:50.354Z,99.99
2023-08-25T00:51:50.364Z,99.99
2023-08-25T00:52:50.315Z,99.99
2023-08-25T00:53:50.329Z,99.99
2023-08-25T00:54:50.309Z,99.99
2023-08-25T00:55:50.306Z,99.99
2023-08-25T00:56:50.273Z,99.99
2023-08-25T00:57:50.611Z,99.99
2023-08-25T00:58:50.257Z,99.99
2023-08-25T00:59:50.260Z,99.99
2023-08-25T01:00:50.272Z,99.99
2023-08-25T01:01:50.257Z,99.99
2023-08-25T01:02:50.395Z,99.99
2023-08-25T01:03:50.214Z,99.99
2023-08-25T01:04:50.191Z,99.99
2023-08-25T01:05:50.224Z,99.99
2023-08-25T01:06:50.171Z,99.99
2023-08-25T01:07:50.266Z,99.99
2023-08-25T01:08:50.166Z,99.99
2023-08-25T01:09:50.133Z,99.99
2023-08-25T01:10:50.130Z,99.99
2023-08-25T01:11:50.162Z,99.99
2023-08-25T01:12:50.107Z,99.99
2023-08-25T01:13:50.094Z,99.99
2023-08-25T01:14:50.093Z,99.99
2023-08-25T01:15:50.097Z,99.99
2023-08-25T01:16:50.124Z,99.99
2023-08-25T01:17:50.399Z,99.99
2023-08-25T01:18:50.070Z,99.05
2023-08-25T01:19:50.033Z,99.99
2023-08-25T01:20:50.024Z,99.85
2023-08-25T01:21:50.011Z,99.25
2023-08-25T01:22:50.007Z,98.44
2023-08-25T01:23:50.013Z,99.40
2023-08-25T01:24:49.979Z,97.59
2023-08-25T01:25:49.985Z,97.29
2023-08-25T01:26:49.963Z,97.39
2023-08-25T01:27:50.382Z,96.89
2023-08-25T01:28:49.939Z,96.78
2023-08-25T01:29:49.955Z,97.34
2023-08-25T01:30:49.956Z,95.84
2023-08-25T01:31:49.913Z,97.14
2023-08-25T01:32:50.008Z,96.14
2023-08-25T01:33:49.891Z,95.33
2023-08-25T01:34:49.894Z,95.23
2023-08-25T01:35:50.333Z,94.53
2023-08-25T01:36:49.907Z,95.33
2023-08-25T01:37:49.863Z,95.59
2023-08-25T01:38:49.901Z,94.43
2023-08-25T01:39:49.910Z,95.29
2023-08-25T01:40:49.812Z,95.79
2023-08-25T01:41:49.839Z,95.18
2023-08-25T01:42:49.794Z,94.38
2023-08-25T01:43:49.773Z,94.48
2023-08-25T01:44:49.774Z,95.29
2023-08-25T01:45:49.765Z,96.80
2023-08-25T01:46:49.738Z,95.94
2023-08-25T01:47:49.781Z,96.74
2023-08-25T01:48:49.721Z,95.53
2023-08-25T01:49:49.712Z,96.14
2023-08-25T01:50:49.697Z,95.33
2023-08-25T01:51:49.689Z,96.84
2023-08-25T01:52:49.679Z,96.64
2023-08-25T01:53:49.694Z,97.04
2023-08-25T01:54:49.649Z,96.54
2023-08-25T01:55:49.645Z,96.34
2023-08-25T01:56:49.626Z,95.53
2023-08-25T01:57:49.626Z,95.73
2023-08-25T01:58:49.618Z,96.74
2023-08-25T01:59:49.617Z,96.54
2023-08-25T02:00:49.593Z,96.74
2023-08-25T02:01:49.629Z,95.84
2023-08-25T02:02:49.574Z,94.93
2023-08-25T02:03:49.566Z,95.23
2023-08-25T02:04:49.563Z,96.44
2023-08-25T02:05:49.688Z,94.68
2023-08-25T02:06:49.527Z,94.59
2023-08-25T02:07:49.517Z,94.08
2023-08-25T02:08:49.510Z,93.78
2023-08-25T02:09:49.490Z,93.78
2023-08-25T02:10:49.505Z,93.88
2023-08-25T02:11:49.497Z,94.18
2023-08-25T02:12:49.468Z,95.49
2023-08-25T02:13:49.454Z,93.88
2023-08-25T02:14:49.439Z,93.68
2023-08-25T02:15:49.470Z,93.48
2023-08-25T02:16:49.426Z,93.38
2023-08-25T02:17:49.444Z,93.48
2023-08-25T02:18:49.393Z,94.59
2023-08-25T02:19:49.386Z,94.79
2023-08-25T02:20:49.378Z,94.83
2023-08-25T02:21:49.375Z,94.53
2023-08-25T02:22:49.354Z,95.33
2023-08-25T02:23:49.364Z,94.53
2023-08-25T02:24:49.333Z,95.33
2023-08-25T02:25:49.332Z,95.33
2023-08-25T02:26:49.312Z,95.53
2023-08-25T02:27:49.304Z,95.94
2023-08-25T02:28:49.285Z,96.04
2023-08-25T02:29:49.298Z,96.14
2023-08-25T02:30:49.277Z,97.64
2023-08-25T02:31:49.333Z,97.44
2023-08-25T02:32:49.286Z,96.84
2023-08-25T02:33:49.239Z,96.69
2023-08-25T02:34:49.226Z,97.59
2023-08-25T02:35:49.262Z,97.49
2023-08-25T02:36:49.200Z,96.98
2023-08-25T02:37:49.193Z,97.19
2023-08-25T02:38:49.181Z,97.39
2023-08-25T02:39:49.177Z,97.94
2023-08-25T02:40:49.160Z,98.24
2023-08-25T02:41:49.179Z,98.44
2023-08-25T02:42:49.157Z,98.90
2023-08-25T02:43:49.171Z,98.79
2023-08-25T02:44:49.120Z,98.90
2023-08-25T02:45:49.124Z,99.19
2023-08-25T02:46:49.106Z,98.99
2023-08-25T02:47:49.138Z,99.10
2023-08-25T02:48:49.089Z,99.30
2023-08-25T02:49:49.067Z,99.99
2023-08-25T02:50:49.053Z,99.99
2023-08-25T02:51:49.052Z,99.99
2023-08-25T02:52:49.049Z,99.05
2023-08-25T02:53:49.054Z,99.05
2023-08-25T02:54:49.029Z,99.30
2023-08-25T02:55:49.002Z,98.99
2023-08-25T02:56:48.991Z,98.90
2023-08-25T02:57:49.006Z,99.99
2023-08-25T02:58:48.970Z,99.45
2023-08-25T02:59:48.979Z,99.05
2023-08-25T03:00:48.949Z,98.99
2023-08-25T03:01:49.040Z,99.30
2023-08-25T03:02:48.966Z,99.50
2023-08-25T03:03:48.950Z,99.99
2023-08-25T03:04:48.908Z,99.99
2023-08-25T03:05:48.916Z,99.99
2023-08-25T03:06:48.884Z,99.99
2023-08-25T03:07:48.936Z,99.65
2023-08-25T03:08:48.860Z,99.70
2023-08-25T03:09:48.857Z,99.99
2023-08-25T03:10:48.851Z,99.99
2023-08-25T03:11:48.856Z,99.99
2023-08-25T03:12:48.824Z,99.99
2023-08-25T03:13:48.815Z,99.99
2023-08-25T03:14:48.805Z,99.99
2023-08-25T03:15:48.820Z,99.99
2023-08-25T03:16:48.778Z,99.85
2023-08-25T03:17:48.865Z,99.80
2023-08-25T03:18:48.756Z,99.99
2023-08-25T03:19:48.751Z,99.90
2023-08-25T03:20:48.743Z,99.99
2023-08-25T03:21:48.728Z,99.99
2023-08-25T03:22:48.736Z,99.99
2023-08-25T03:23:48.731Z,99.99
2023-08-25T03:24:48.704Z,99.99
2023-08-25T03:25:48.685Z,99.99
2023-08-25T03:26:48.672Z,99.99
2023-08-25T03:27:48.690Z,99.99
2023-08-25T03:28:48.665Z,99.99
2023-08-25T03:29:48.671Z,99.99
2023-08-25T03:30:48.655Z,99.99
2023-08-25T03:31:48.623Z,99.99
2023-08-25T03:32:48.660Z,99.99
2023-08-25T03:33:48.616Z,99.99
2023-08-25T03:34:48.593Z,99.99
2023-08-25T03:35:48.605Z,99.99
2023-08-25T03:36:48.574Z,99.99
2023-08-25T03:37:48.630Z,99.99
2023-08-25T03:38:48.560Z,99.99
2023-08-25T03:39:48.534Z,99.99
2023-08-25T03:40:48.555Z,99.99
2023-08-25T03:41:48.533Z,99.99
2023-08-25T03:42:48.503Z,99.99
2023-08-25T03:43:48.500Z,99.99
2023-08-25T03:44:48.512Z,99.99
2023-08-25T03:45:48.483Z,99.99
2023-08-25T03:46:48.502Z,99.99
2023-08-25T03:47:48.550Z,99.99
2023-08-25T03:48:48.458Z,99.99
2023-08-25T03:49:48.443Z,99.99
2023-08-25T03:50:48.429Z,99.99
2023-08-25T03:51:48.420Z,99.99
2023-08-25T03:52:48.418Z,99.99
2023-08-25T03:53:48.428Z,99.99
2023-08-25T03:54:48.384Z,99.99
2023-08-25T03:55:48.364Z,99.99
2023-08-25T03:56:48.366Z,99.99
2023-08-25T03:57:48.366Z,99.99
2023-08-25T03:58:48.340Z,99.99
2023-08-25T03:59:48.358Z,99.99
2023-08-25T04:00:48.355Z,99.99
2023-08-25T04:01:48.306Z,99.99
2023-08-25T04:02:48.333Z,99.99
2023-08-25T04:03:48.318Z,99.99
2023-08-25T04:04:48.277Z,99.99
2023-08-25T04:05:48.281Z,99.99
2023-08-25T04:06:48.249Z,99.99
2023-08-25T04:07:48.245Z,99.99
2023-08-25T04:08:48.232Z,99.99
2023-08-25T04:09:48.217Z,99.99
2023-08-25T04:10:48.205Z,99.99
2023-08-25T04:11:48.217Z,99.99
2023-08-25T04:12:48.190Z,99.99
2023-08-25T04:13:48.182Z,99.99
2023-08-25T04:14:48.169Z,99.99
2023-08-25T04:15:48.150Z,99.99
2023-08-25T04:16:48.226Z,99.99
2023-08-25T04:17:48.224Z,99.99
2023-08-25T04:18:48.142Z,99.99
2023-08-25T04:19:48.120Z,99.99
2023-08-25T04:20:48.129Z,99.99
2023-08-25T04:21:48.089Z,99.99
2023-08-25T04:22:48.092Z,99.99
2023-08-25T04:23:48.104Z,99.99
2023-08-25T04:24:48.057Z,99.99
2023-08-25T04:25:48.076Z,99.99
2023-08-25T04:26:48.070Z,99.99
2023-08-25T04:27:48.022Z,99.99
2023-08-25T04:28:48.013Z,99.99
2023-08-25T04:29:48.126Z,99.99
2023-08-25T04:30:47.998Z,99.99
2023-08-25T04:31:47.980Z,99.99
2023-08-25T04:32:48.006Z,99.99
2023-08-25T04:33:47.966Z,99.99
2023-08-25T04:34:48.000Z,99.99
2023-08-25T04:35:47.961Z,99.99
2023-08-25T04:36:47.937Z,99.99
2023-08-25T04:37:47.912Z,99.99
2023-08-25T04:38:47.951Z,99.99
2023-08-25T04:39:47.893Z,99.99
2023-08-25T04:40:47.889Z,99.99
2023-08-25T04:41:47.911Z,99.99
2023-08-25T04:42:47.859Z,99.99
2023-08-25T04:43:47.855Z,99.99
2023-08-25T04:44:47.842Z,99.99
2023-08-25T04:45:47.842Z,99.99
2023-08-25T04:46:47.856Z,99.99
2023-08-25T04:47:47.848Z,99.99
2023-08-25T04:48:47.800Z,99.99
2023-08-25T04:49:47.783Z,99.99
2023-08-25T04:50:47.782Z,99.99
2023-08-25T04:51:47.762Z,99.99
2023-08-25T04:52:47.760Z,99.99
2023-08-25T04:53:47.763Z,99.99
2023-08-25T04:54:47.738Z,99.99
2023-08-25T04:55:47.726Z,99.99
2023-08-25T04:56:47.724Z,99.99
2023-08-25T04:57:47.701Z,99.99
2023-08-25T04:58:47.694Z,99.99
2023-08-25T04:59:47.709Z,99.99
2023-08-25T05:00:47.701Z,99.99
2023-08-25T05:01:47.675Z,99.99
2023-08-25T05:02:47.729Z,99.99
2023-08-25T05:03:47.678Z,99.99
2023-08-25T05:04:47.627Z,99.99
2023-08-25T05:05:48.868Z,99.99
2023-08-25T05:06:47.607Z,99.99
2023-08-25T05:07:47.592Z,99.99
2023-08-25T05:08:47.602Z,99.99
2023-08-25T05:09:47.566Z,99.99
2023-08-25T05:10:47.560Z,99.99
2023-08-25T05:11:47.577Z,99.99
2023-08-25T05:12:47.536Z,99.99
2023-08-25T05:13:47.523Z,99.99
2023-08-25T05:14:47.544Z,99.99
2023-08-25T05:15:47.517Z,99.99
2023-08-25T05:16:47.525Z,99.99
2023-08-25T05:17:47.508Z,99.99
2023-08-25T05:18:47.474Z,99.99
2023-08-25T05:19:47.459Z,99.99
2023-08-25T05:20:47.454Z,99.99
2023-08-25T05:21:47.439Z,99.99
2023-08-25T05:22:47.432Z,99.99
2023-08-25T05:23:47.470Z,99.99
2023-08-25T05:24:47.427Z,99.99
2023-08-25T05:25:47.398Z,99.99
2023-08-25T05:26:47.411Z,99.99
2023-08-25T05:27:47.372Z,99.99
2023-08-25T05:28:47.366Z,99.99
2023-08-25T05:29:47.392Z,99.99
2023-08-25T05:30:47.348Z,99.99
2023-08-25T05:31:47.342Z,99.99
2023-08-25T05:32:47.367Z,99.99
2023-08-25T05:33:47.311Z,99.99
2023-08-25T05:34:47.310Z,99.99
2023-08-25T05:35:47.306Z,99.99
2023-08-25T05:36:47.295Z,99.99
2023-08-25T05:37:47.270Z,99.99
2023-08-25T05:38:47.279Z,99.99
2023-08-25T05:39:47.241Z,99.99
2023-08-25T05:40:47.247Z,99.99
2023-08-25T05:41:47.239Z,99.99
2023-08-25T05:42:47.227Z,99.99
2023-08-25T05:43:47.201Z,99.99
2023-08-25T05:44:47.196Z,99.99
2023-08-25T05:45:47.236Z,99.99
2023-08-25T05:46:47.189Z,99.99
2023-08-25T05:47:47.206Z,99.99
2023-08-25T05:48:47.172Z,99.99
2023-08-25T05:49:49.573Z,99.99
2023-08-25T05:50:47.162Z,99.99
2023-08-25T05:51:47.170Z,99.99
2023-08-25T05:52:47.111Z,99.99
2023-08-25T05:53:47.118Z,99.99
2023-08-25T05:54:47.138Z,99.99
2023-08-25T05:55:47.076Z,99.99
2023-08-25T05:56:47.066Z,99.99
2023-08-25T05:57:47.059Z,99.99
2023-08-25T05:58:47.064Z,99.99
2023-08-25T05:59:47.054Z,99.99
2023-08-25T06:00:47.062Z,99.99
2023-08-25T06:01:47.052Z,99.99
2023-08-25T06:02:47.032Z,99.99
2023-08-25T06:03:47.034Z,99.99
2023-08-25T06:04:46.985Z,99.99
2023-08-25T06:05:46.993Z,99.99
2023-08-25T06:06:46.965Z,99.99
2023-08-25T06:07:46.941Z,99.99
2023-08-25T06:08:46.969Z,99.99
2023-08-25T06:09:46.926Z,99.99
2023-08-25T06:10:46.916Z,99.99
2023-08-25T06:11:46.952Z,99.99
2023-08-25T06:12:46.887Z,99.99
2023-08-25T06:13:46.879Z,99.99
2023-08-25T06:14:46.876Z,99.99
2023-08-25T06:15:46.988Z,99.99
2023-08-25T06:16:46.850Z,99.99
2023-08-25T06:17:46.872Z,99.99
2023-08-25T06:18:46.825Z,99.99
2023-08-25T06:19:46.813Z,99.99
2023-08-25T06:20:46.828Z,99.99
2023-08-25T06:21:46.815Z,99.99
2023-08-25T06:22:46.799Z,99.99
2023-08-25T06:23:46.776Z,99.99
2023-08-25T06:24:46.765Z,99.99
2023-08-25T06:25:46.751Z,99.99
2023-08-25T06:26:46.781Z,99.99
2023-08-25T06:27:46.749Z,99.99
2023-08-25T06:28:46.713Z,99.99
2023-08-25T06:29:46.711Z,99.99
2023-08-25T06:30:46.696Z,99.99
2023-08-25T06:31:46.704Z,99.99
2023-08-25T06:32:46.703Z,99.99
2023-08-25T06:33:46.673Z,99.99
2023-08-25T06:34:46.656Z,99.99
2023-08-25T06:35:46.690Z,99.99
2023-08-25T06:36:46.633Z,99.99
2023-08-25T06:37:46.681Z,99.99
2023-08-25T06:38:56.331Z,99.99
2023-08-25T06:39:46.606Z,99.99
2023-08-25T06:40:46.596Z,99.99
2023-08-25T06:41:48.256Z,99.99
2023-08-25T06:42:46.593Z,99.99
2023-08-25T06:43:46.590Z,99.99
2023-08-25T06:44:46.542Z,99.99
2023-08-25T06:45:46.558Z,99.99
2023-08-25T06:46:46.531Z,99.71
2023-08-25T06:47:46.545Z,99.32
2023-08-25T06:48:46.519Z,98.41
2023-08-25T06:49:46.532Z,99.99
2023-08-25T06:50:46.501Z,99.62
2023-08-25T06:51:46.487Z,99.99
2023-08-25T06:52:46.480Z,99.99
2023-08-25T06:53:46.454Z,99.99
2023-08-25T06:54:46.463Z,99.99
2023-08-25T06:55:46.428Z,99.99
2023-08-25T06:56:46.415Z,99.99
2023-08-25T06:57:46.410Z,99.16
2023-08-25T06:58:46.408Z,99.27
2023-08-25T06:59:46.442Z,99.99
2023-08-25T07:00:46.376Z,99.22
2023-08-25T07:01:46.423Z,97.72
2023-08-25T07:02:46.385Z,99.99
2023-08-25T07:03:46.375Z,97.72
2023-08-25T07:04:46.331Z,99.82
2023-08-25T07:05:46.337Z,99.12
2023-08-25T07:06:46.373Z,99.99
2023-08-25T07:07:46.304Z,99.99
2023-08-25T07:08:46.293Z,99.99
2023-08-25T07:09:46.281Z,99.62
2023-08-25T07:10:46.356Z,98.32
2023-08-25T07:11:46.258Z,97.31
2023-08-25T07:12:46.255Z,97.41
2023-08-25T07:13:46.241Z,98.52
2023-08-25T07:14:46.231Z,99.42
2023-08-25T07:15:46.278Z,99.99
2023-08-25T07:16:46.226Z,99.57
2023-08-25T07:17:46.207Z,98.37
2023-08-25T07:18:46.188Z,97.31
2023-08-25T07:19:46.187Z,97.52
2023-08-25T07:20:46.163Z,98.92
2023-08-25T07:21:46.181Z,97.77
2023-08-25T07:22:46.147Z,97.77
2023-08-25T07:23:46.134Z,97.47
2023-08-25T07:24:46.551Z,97.17
2023-08-25T07:25:46.118Z,97.27
2023-08-25T07:26:46.096Z,98.32
2023-08-25T07:27:46.106Z,97.52
2023-08-25T07:28:46.082Z,98.13
2023-08-25T07:29:46.068Z,98.18
2023-08-25T07:30:46.064Z,98.38
2023-08-25T07:31:46.060Z,96.58
2023-08-25T07:32:46.075Z,97.28
2023-08-25T07:33:46.028Z,97.28
2023-08-25T07:34:46.021Z,95.07
2023-08-25T07:35:46.022Z,93.87
2023-08-25T07:36:45.994Z,93.37
2023-08-25T07:37:45.987Z,96.58
2023-08-25T07:38:45.983Z,96.37
2023-08-25T07:39:45.971Z,96.33
2023-08-25T07:40:45.964Z,95.83
2023-08-25T07:41:45.949Z,97.03
2023-08-25T07:42:45.929Z,97.53
2023-08-25T07:43:47.209Z,97.53
2023-08-25T07:44:45.904Z,96.13
2023-08-25T07:45:45.906Z,96.13
2023-08-25T07:46:45.897Z,95.23
2023-08-25T07:47:45.914Z,94.97
2023-08-25T07:48:45.862Z,94.17
2023-08-25T07:49:45.897Z,97.88
2023-08-25T07:50:45.856Z,97.38
2023-08-25T07:51:45.831Z,96.88
2023-08-25T07:52:45.823Z,96.77
2023-08-25T07:53:45.826Z,96.82
2023-08-25T07:54:45.863Z,97.52
2023-08-25T07:55:45.812Z,97.72
2023-08-25T07:56:45.783Z,97.72
2023-08-25T07:57:45.805Z,98.02
2023-08-25T07:58:45.757Z,98.13
2023-08-25T07:59:45.748Z,98.72
2023-08-25T08:00:45.879Z,99.99
2023-08-25T08:01:45.726Z,99.99
2023-08-25T08:02:45.749Z,99.33
2023-08-25T08:03:45.760Z,99.52
2023-08-25T08:04:45.717Z,99.99
2023-08-25T08:05:45.714Z,98.52
2023-08-25T08:06:45.684Z,99.99
2023-08-25T08:07:45.710Z,99.99
2023-08-25T08:08:45.686Z,99.99
2023-08-25T08:09:45.648Z,99.99
2023-08-25T08:10:45.632Z,99.99
2023-08-25T08:11:45.632Z,99.99
2023-08-25T08:12:45.625Z,99.99
2023-08-25T08:13:45.613Z,99.99
2023-08-25T08:14:46.870Z,99.99
2023-08-25T08:15:45.582Z,99.99
2023-08-25T08:16:45.612Z,99.99
2023-08-25T08:17:45.628Z,99.99
2023-08-25T08:18:45.548Z,99.99
2023-08-25T08:19:45.553Z,99.99
2023-08-25T08:20:45.523Z,99.99
2023-08-25T08:21:45.512Z,99.99
2023-08-25T08:22:45.643Z,98.02
2023-08-25T08:23:45.507Z,98.32
2023-08-25T08:24:50.939Z,98.63
2023-08-25T08:25:45.485Z,98.52
2023-08-25T08:26:45.461Z,99.33
2023-08-25T08:27:45.477Z,99.99
2023-08-25T08:28:45.444Z,99.99
2023-08-25T08:29:45.432Z,99.99
2023-08-25T08:30:47.082Z,99.99
2023-08-25T08:31:45.424Z,99.99
2023-08-25T08:32:45.418Z,99.73
2023-08-25T08:33:45.401Z,98.57
2023-08-25T08:34:45.381Z,99.17
2023-08-25T08:35:45.366Z,99.99
2023-08-25T08:36:45.361Z,99.99
2023-08-25T08:37:45.347Z,99.99
2023-08-25T08:38:45.385Z,99.17
2023-08-25T08:39:45.323Z,99.27
2023-08-25T08:40:45.315Z,99.99
2023-08-25T08:41:45.386Z,99.99
2023-08-25T08:42:45.365Z,99.99
2023-08-25T08:43:45.276Z,99.99
2023-08-25T08:44:45.344Z,99.99
2023-08-25T08:45:45.257Z,99.99
2023-08-25T08:46:45.323Z,99.99
2023-08-25T08:47:45.362Z,99.99
2023-08-25T08:48:45.233Z,99.99
2023-08-25T08:49:45.228Z,99.99
2023-08-25T08:50:45.205Z,99.99
2023-08-25T08:51:45.197Z,99.99
2023-08-25T08:52:45.189Z,99.99
2023-08-25T08:53:45.174Z,99.99
2023-08-25T08:54:45.162Z,99.99
2023-08-25T08:55:45.166Z,99.99
2023-08-25T08:56:45.136Z,99.99
2023-08-25T08:57:45.126Z,99.99
2023-08-25T08:58:45.115Z,99.99
2023-08-25T08:59:45.141Z,99.99
2023-08-25T09:00:45.208Z,99.99
2023-08-25T09:01:45.115Z,99.99
2023-08-25T09:02:45.122Z,99.99
2023-08-25T09:03:45.070Z,99.99
2023-08-25T09:04:45.076Z,99.99
2023-08-25T09:05:45.054Z,99.99
2023-08-25T09:06:45.046Z,99.99
2023-08-25T09:07:45.040Z,99.99
2023-08-25T09:08:45.006Z,99.99
2023-08-25T09:09:45.032Z,99.99
2023-08-25T09:10:44.991Z,99.99
2023-08-25T09:11:45.014Z,99.99
2023-08-25T09:12:44.984Z,99.99
2023-08-25T09:13:44.975Z,99.99
2023-08-25T09:14:44.971Z,99.99
2023-08-25T09:15:44.938Z,99.99
2023-08-25T09:16:45.020Z,99.99
2023-08-25T09:17:44.989Z,99.99
2023-08-25T09:18:44.904Z,99.99
2023-08-25T09:19:44.912Z,99.99
2023-08-25T09:20:44.901Z,99.99
2023-08-25T09:21:44.871Z,99.99
2023-08-25T09:22:44.892Z,99.99
2023-08-25T09:23:44.852Z,99.99
2023-08-25T09:24:44.842Z,99.99
2023-08-25T09:25:44.845Z,99.99
2023-08-25T09:26:44.821Z,99.99
2023-08-25T09:27:44.851Z,99.99
2023-08-25T09:28:44.820Z,99.99
2023-08-25T09:29:44.786Z,99.99
2023-08-25T09:30:44.878Z,99.99
2023-08-25T09:31:44.769Z,99.99
2023-08-25T09:32:44.788Z,99.99
2023-08-25T09:33:44.767Z,99.99
2023-08-25T09:34:44.740Z,99.99
2023-08-25T09:35:44.747Z,99.99
2023-08-25T09:36:44.717Z,99.99
2023-08-25T09:37:44.709Z,99.99
2023-08-25T09:38:53.172Z,99.99
2023-08-25T09:39:44.713Z,99.99
2023-08-25T09:40:44.666Z,99.99
2023-08-25T09:41:44.663Z,99.99
2023-08-25T09:42:44.663Z,99.99
2023-08-25T09:43:44.640Z,99.99
2023-08-25T09:44:44.666Z,99.99
2023-08-25T09:45:44.635Z,99.99
2023-08-25T09:46:44.649Z,99.99
2023-08-25T09:47:44.622Z,99.99
2023-08-25T09:48:44.593Z,99.99
2023-08-25T09:49:44.572Z,99.99
2023-08-25T09:50:44.599Z,99.99
2023-08-25T09:51:44.670Z,99.99
2023-08-25T09:52:44.539Z,99.99
2023-08-25T09:53:44.770Z,99.99
2023-08-25T09:54:44.531Z,99.99
2023-08-25T09:55:49.321Z,99.99
2023-08-25T09:56:44.514Z,99.99
2023-08-25T09:57:44.505Z,99.99
2023-08-25T09:58:44.488Z,99.99
2023-08-25T09:59:44.476Z,99.99
2023-08-25T10:00:44.456Z,99.99
2023-08-25T10:01:44.511Z,99.99
2023-08-25T10:02:44.468Z,99.99
2023-08-25T10:03:44.444Z,99.99
2023-08-25T10:04:44.411Z,99.99
2023-08-25T10:05:44.453Z,99.99
2023-08-25T10:06:44.556Z,99.99
2023-08-25T10:07:44.389Z,99.99
2023-08-25T10:08:44.366Z,99.99
2023-08-25T10:09:44.360Z,99.99
2023-08-25T10:10:44.353Z,99.99
2023-08-25T10:11:44.342Z,99.99
2023-08-25T10:12:47.163Z,99.99
2023-08-25T10:13:44.346Z,99.99
2023-08-25T10:14:44.307Z,99.99
2023-08-25T10:15:44.394Z,99.99
2023-08-25T10:16:44.279Z,99.99
2023-08-25T10:17:44.339Z,99.99
2023-08-25T10:18:44.265Z,99.99
2023-08-25T10:19:44.256Z,99.99
2023-08-25T10:20:44.278Z,99.99
2023-08-25T10:21:44.248Z,99.99
2023-08-25T10:22:44.240Z,99.99
2023-08-25T10:23:44.216Z,99.99
2023-08-25T10:24:44.212Z,99.99
2023-08-25T10:25:44.204Z,99.99
2023-08-25T10:26:44.209Z,99.99
2023-08-25T10:27:44.164Z,99.99
2023-08-25T10:28:44.296Z,99.99
2023-08-25T10:29:44.150Z,99.99
2023-08-25T10:30:44.137Z,99.99
2023-08-25T10:31:44.133Z,99.99
2023-08-25T10:32:44.164Z,99.99
2023-08-25T10:33:44.110Z,99.99
2023-08-25T10:34:44.106Z,99.99
2023-08-25T10:35:44.094Z,99.99
2023-08-25T10:36:44.070Z,99.99
2023-08-25T10:37:44.067Z,99.99
2023-08-25T10:38:44.077Z,99.99
2023-08-25T10:39:44.073Z,99.99
2023-08-25T10:40:44.035Z,99.99
2023-08-25T10:41:44.022Z,99.99
2023-08-25T10:42:44.022Z,99.99
2023-08-25T10:43:43.998Z,99.99
2023-08-25T10:44:44.026Z,99.99
2023-08-25T10:45:44.019Z,99.99
2023-08-25T10:46:49.056Z,99.99
2023-08-25T10:47:44.012Z,99.99
2023-08-25T10:48:44.024Z,99.99
2023-08-25T10:49:44.018Z,99.99
2023-08-25T10:50:44.163Z,99.99
2023-08-25T10:51:43.928Z,99.99
2023-08-25T10:52:43.930Z,99.99
2023-08-25T10:53:43.921Z,99.99
2023-08-25T10:54:44.716Z,99.99
2023-08-25T10:55:43.896Z,99.99
2023-08-25T10:56:43.885Z,99.99
2023-08-25T10:57:43.853Z,99.99
2023-08-25T10:58:43.834Z,99.99
2023-08-25T10:59:43.825Z,99.99
2023-08-25T11:00:43.818Z,99.99
2023-08-25T11:01:43.820Z,99.99
2023-08-25T11:02:43.894Z,99.99
2023-08-25T11:03:43.859Z,99.99
2023-08-25T11:04:43.831Z,99.99
2023-08-25T11:05:43.758Z,99.99
2023-08-25T11:06:43.746Z,99.99
2023-08-25T11:07:43.760Z,99.99
2023-08-25T11:08:43.736Z,99.99
2023-08-25T11:09:43.710Z,99.99
2023-08-25T11:10:44.841Z,99.99
2023-08-25T11:11:43.684Z,99.99
2023-08-25T11:12:46.285Z,99.99
2023-08-25T11:13:43.705Z,99.99
2023-08-25T11:14:43.844Z,99.99
2023-08-25T11:15:43.694Z,99.99
2023-08-25T11:16:43.651Z,99.99
2023-08-25T11:17:43.660Z,99.99
2023-08-25T11:18:43.836Z,99.99
2023-08-25T11:19:43.607Z,99.99
2023-08-25T11:20:43.593Z,99.99
2023-08-25T11:21:43.577Z,99.99
2023-08-25T11:22:43.604Z,99.99
2023-08-25T11:23:43.583Z,99.99
2023-08-25T11:24:43.565Z,99.99
2023-08-25T11:25:43.547Z,99.99
2023-08-25T11:26:43.544Z,99.99
2023-08-25T11:27:43.520Z,99.99
2023-08-25T11:28:43.504Z,99.99
2023-08-25T11:29:43.551Z,99.99
2023-08-25T11:30:43.502Z,99.99
2023-08-25T11:31:43.466Z,99.99
2023-08-25T11:32:43.514Z,99.99
2023-08-25T11:33:43.448Z,99.99
2023-08-25T11:34:43.461Z,99.99
2023-08-25T11:35:43.425Z,99.99
2023-08-25T11:36:43.419Z,99.99
2023-08-25T11:37:43.401Z,99.99
2023-08-25T11:38:43.397Z,99.99
2023-08-25T11:39:43.389Z,99.99
2023-08-25T11:40:43.403Z,99.99
2023-08-25T11:41:43.360Z,99.99
2023-08-25T11:42:43.398Z,99.99
2023-08-25T11:43:43.341Z,99.99
2023-08-25T11:44:43.336Z,99.99
2023-08-25T11:45:43.344Z,99.99
2023-08-25T11:46:43.331Z,99.99
2023-08-25T11:47:43.379Z,99.99
2023-08-25T11:48:43.293Z,99.99
2023-08-25T11:49:43.284Z,99.99
2023-08-25T11:50:43.289Z,99.99
2023-08-25T11:51:43.274Z,99.99
2023-08-25T11:52:43.252Z,99.99
2023-08-25T11:53:43.264Z,99.99
2023-08-25T11:54:43.223Z,99.99
2023-08-25T11:55:43.209Z,99.99
2023-08-25T11:56:43.261Z,99.99
2023-08-25T11:57:43.188Z,99.99
2023-08-25T11:58:43.186Z,99.99
2023-08-25T11:59:43.171Z,99.99
2023-08-25T12:00:43.237Z,99.99
2023-08-25T12:01:43.164Z,99.99
2023-08-25T12:02:43.230Z,99.99
2023-08-25T12:03:43.181Z,99.99
2023-08-25T12:04:43.116Z,99.99
2023-08-25T12:05:43.108Z,99.99
2023-08-25T12:06:43.133Z,99.99
2023-08-25T12:07:43.118Z,99.99
2023-08-25T12:08:43.089Z,99.99
2023-08-25T12:09:43.061Z,99.99
2023-08-25T12:10:43.050Z,99.99
2023-08-25T12:11:43.049Z,99.99
2023-08-25T12:12:43.047Z,99.99
2023-08-25T12:13:43.033Z,99.99
2023-08-25T12:14:43.008Z,99.99
2023-08-25T12:15:43.146Z,99.99
2023-08-25T12:16:43.043Z,99.99
2023-08-25T12:17:43.055Z,99.99
2023-08-25T12:18:42.983Z,99.99
2023-08-25T12:19:42.983Z,99.99
2023-08-25T12:20:42.952Z,99.99
2023-08-25T12:21:42.948Z,99.99
2023-08-25T12:22:42.936Z,99.99
2023-08-25T12:23:42.910Z,99.99
2023-08-25T12:24:42.926Z,99.99
2023-08-25T12:25:42.890Z,99.99
2023-08-25T12:26:42.880Z,99.99
2023-08-25T12:27:42.884Z,99.99
2023-08-25T12:28:42.869Z,99.99
2023-08-25T12:29:42.872Z,99.99
2023-08-25T12:30:42.892Z,99.99
2023-08-25T12:31:42.826Z,99.99
2023-08-25T12:32:42.852Z,99.99
2023-08-25T12:33:42.800Z,99.99
2023-08-25T12:34:45.612Z,99.99
2023-08-25T12:35:42.834Z,99.99
2023-08-25T12:36:42.780Z,99.99
2023-08-25T12:37:42.767Z,99.99
2023-08-25T12:38:42.760Z,99.99
2023-08-25T12:39:42.762Z,99.99
2023-08-25T12:40:42.748Z,99.99
2023-08-25T12:41:42.721Z,99.99
2023-08-25T12:42:42.712Z,99.99
2023-08-25T12:43:42.695Z,99.99
2023-08-25T12:44:42.688Z,99.99
2023-08-25T12:45:42.821Z,99.99
2023-08-25T12:46:43.358Z,99.99
2023-08-25T12:47:42.710Z,99.99
2023-08-25T12:48:42.902Z,99.99
2023-08-25T12:49:42.655Z,99.99
2023-08-25T12:50:42.632Z,99.99
2023-08-25T12:51:44.688Z,99.99
2023-08-25T12:52:42.942Z,99.99